Nyk Olympus — 3EOS7 — position and weather

sailwx.info

Track history (hours):
 
Tides and Currents Weather Stations Pressure Air Temp Water Temp Dewpoint Dewpoint Depression Visibility Wind Speed Wind Dir Waves Ship Positions

Nyk Olympus

Last reported at 2014-Oct-01 01:33 UTC. Time now 2014-Oct-02 08:33 UTC.
Position N 23°52' E 118°23'.

Length 335 m; draft 11.9 m.

Type: Ship. MMSI: 372478000.

Date/timePositionNaut miles runAvg speedWind from/ knotsBaromVisibWave heightAir tempDewpointWater temp
2014-Oct-01 01:33N 23°52' E 118°23'1717.3
2014-Oct-01 00:33N 23°43' E 118°07'1615.7
2014-Sep-30 23:33N 23°36' E 117°52'1514.6
2014-Sep-30 22:31N 23°27' E 117°39'20415.5
2014-Sep-30 09:19N 22°08' E 114°14'1012.1
2014-Sep-30 08:28N 22°16' E 114°07'4 1.8
2014-Sep-30 06:21N 22°20' E 114°08'0 0.0
2014-Sep-30 03:33N 22°20' E 114°08'0 0.0
2014-Sep-30 02:33N 22°20' E 114°08'0 0.1
2014-Sep-30 01:33N 22°20' E 114°08'0 0.1
2014-Sep-30 00:33N 22°20' E 114°08'0 0.0
2014-Sep-29 23:09N 22°20' E 114°08'0 0.0
2014-Sep-29 20:27N 22°20' E 114°08'0 0.0
2014-Sep-29 19:33N 22°20' E 114°08'0 0.0
2014-Sep-29 18:09N 22°20' E 114°08'0 0.1
2014-Sep-29 17:27N 22°20' E 114°08'0 0.1
2014-Sep-29 16:27N 22°20' E 114°08'0 0.0
2014-Sep-29 14:33N 22°20' E 114°08'0 0.0
2014-Sep-29 12:15N 22°20' E 114°08'0 0.0
2014-Sep-29 09:09N 22°20' E 114°08'0 0.0
2014-Sep-29 08:15N 22°20' E 114°08'3 4.2
2014-Sep-29 07:29N 22°17' E 114°07'9 8.3
2014-Sep-29 06:27N 22°10' E 114°13'10 7.4
2014-Sep-29 05:07N 22°07' E 114°23'  
2014-Sep-25 19:33N 01°15' E 104°05'1515.0
2014-Sep-25 18:33N 01°11' E 103°50'6 6.5
2014-Sep-25 17:34N 01°16' E 103°46'0 0.1
2014-Sep-25 16:32N 01°16' E 103°46'0 0.0
2014-Sep-25 15:32N 01°16' E 103°46'0 0.0
2014-Sep-25 14:32N 01°16' E 103°46'0 0.0
2014-Sep-25 13:32N 01°16' E 103°46'0 0.0
2014-Sep-25 12:32N 01°16' E 103°46'0 0.0
2014-Sep-25 11:32N 01°16' E 103°46'0 0.0
2014-Sep-25 10:32N 01°16' E 103°46'0 0.1
2014-Sep-25 09:32N 01°16' E 103°46'0 0.1
2014-Sep-25 08:32N 01°16' E 103°46'0 0.0
2014-Sep-25 07:29N 01°16' E 103°46'0 0.0
2014-Sep-25 06:32N 01°16' E 103°46'0 0.0
2014-Sep-25 05:32N 01°16' E 103°46'0 0.0
2014-Sep-25 04:32N 01°16' E 103°46'0 0.0
2014-Sep-25 03:34N 01°16' E 103°46'0 0.0
2014-Sep-25 02:34N 01°16' E 103°46'0 0.0
2014-Sep-25 01:34N 01°16' E 103°46'0 0.0
2014-Sep-25 00:34N 01°16' E 103°46'0 0.0
2014-Sep-24 23:34N 01°16' E 103°46'0 0.0
2014-Sep-24 22:34N 01°16' E 103°46'0 0.0
2014-Sep-24 21:33N 01°16' E 103°46'1 1.1
2014-Sep-24 20:33N 01°15' E 103°46'2 2.3
2014-Sep-24 19:34N 01°13' E 103°48'6 5.9
2014-Sep-24 18:31N 01°15' E 103°54'0 0.1
2014-Sep-24 17:31N 01°15' E 103°54'0 0.2
2014-Sep-24 16:31N 01°15' E 103°54'0 0.1
2014-Sep-24 15:31N 01°15' E 103°53'0 0.0
2014-Sep-24 14:31N 01°15' E 103°53'0 0.1
2014-Sep-24 13:31N 01°15' E 103°53'0 0.1
2014-Sep-24 12:31N 01°15' E 103°53'0 0.1
2014-Sep-24 11:31N 01°15' E 103°53'0 0.0
2014-Sep-24 10:31N 01°15' E 103°53'0 0.0
2014-Sep-24 09:19N 01°15' E 103°53'0 0.1
2014-Sep-24 08:31N 01°15' E 103°53'0 0.1
2014-Sep-24 07:31N 01°15' E 103°54'0 0.0
2014-Sep-24 06:31N 01°15' E 103°54'0 0.1
2014-Sep-24 05:28N 01°15' E 103°54'1 1.2
2014-Sep-24 04:33N 01°14' E 103°53'1 1.4
2014-Sep-24 03:31N 01°13' E 103°54'9 9.7
2014-Sep-24 02:33N 01°08' E 103°46'1010.3
2014-Sep-24 01:33N 01°05' E 103°36'1212.4
2014-Sep-24 00:33N 01°11' E 103°25'1312.1
2014-Sep-23 23:31N 01°19' E 103°15'  
Track history (hours):
 
Tides and Currents Weather Stations Pressure Air Temp Water Temp Dewpoint Dewpoint Depression Visibility Wind Speed Wind Dir Waves Ship Positions

Nyk Olympus

Last reported at 2014-Oct-01 01:33 UTC. Time now 2014-Oct-02 08:33 UTC.
Position N 23°52' E 118°23'.

Length 335 m; draft 11.9 m.

Type: Ship. MMSI: 372478000.

Date/timePositionNaut miles runAvg speedWind from/ knotsBaromVisibWave heightAir tempDewpointWater temp
2014-Oct-01 01:33N 23°52' E 118°23'1717.3
2014-Oct-01 00:33N 23°43' E 118°07'1615.7
2014-Sep-30 23:33N 23°36' E 117°52'1514.6
2014-Sep-30 22:31N 23°27' E 117°39'20415.5
2014-Sep-30 09:19N 22°08' E 114°14'1012.1
2014-Sep-30 08:28N 22°16' E 114°07'4 1.8
2014-Sep-30 06:21N 22°20' E 114°08'0 0.0
2014-Sep-30 03:33N 22°20' E 114°08'0 0.0
2014-Sep-30 02:33N 22°20' E 114°08'0 0.1
2014-Sep-30 01:33N 22°20' E 114°08'0 0.1
2014-Sep-30 00:33N 22°20' E 114°08'0 0.0
2014-Sep-29 23:09N 22°20' E 114°08'0 0.0
2014-Sep-29 20:27N 22°20' E 114°08'0 0.0
2014-Sep-29 19:33N 22°20' E 114°08'0 0.0
2014-Sep-29 18:09N 22°20' E 114°08'0 0.1
2014-Sep-29 17:27N 22°20' E 114°08'0 0.1
2014-Sep-29 16:27N 22°20' E 114°08'0 0.0
2014-Sep-29 14:33N 22°20' E 114°08'0 0.0
2014-Sep-29 12:15N 22°20' E 114°08'0 0.0
2014-Sep-29 09:09N 22°20' E 114°08'0 0.0
2014-Sep-29 08:15N 22°20' E 114°08'3 4.2
2014-Sep-29 07:29N 22°17' E 114°07'9 8.3
2014-Sep-29 06:27N 22°10' E 114°13'10 7.4
2014-Sep-29 05:07N 22°07' E 114°23'  
2014-Sep-25 19:33N 01°15' E 104°05'1515.0
2014-Sep-25 18:33N 01°11' E 103°50'6 6.5
2014-Sep-25 17:34N 01°16' E 103°46'0 0.1
2014-Sep-25 16:32N 01°16' E 103°46'0 0.0
2014-Sep-25 15:32N 01°16' E 103°46'0 0.0
2014-Sep-25 14:32N 01°16' E 103°46'0 0.0
2014-Sep-25 13:32N 01°16' E 103°46'0 0.0
2014-Sep-25 12:32N 01°16' E 103°46'0 0.0
2014-Sep-25 11:32N 01°16' E 103°46'0 0.0
2014-Sep-25 10:32N 01°16' E 103°46'0 0.1
2014-Sep-25 09:32N 01°16' E 103°46'0 0.1
2014-Sep-25 08:32N 01°16' E 103°46'0 0.0
2014-Sep-25 07:29N 01°16' E 103°46'0 0.0
2014-Sep-25 06:32N 01°16' E 103°46'0 0.0
2014-Sep-25 05:32N 01°16' E 103°46'0 0.0
2014-Sep-25 04:32N 01°16' E 103°46'0 0.0
2014-Sep-25 03:34N 01°16' E 103°46'0 0.0
2014-Sep-25 02:34N 01°16' E 103°46'0 0.0
2014-Sep-25 01:34N 01°16' E 103°46'0 0.0
2014-Sep-25 00:34N 01°16' E 103°46'0 0.0
2014-Sep-24 23:34N 01°16' E 103°46'0 0.0
2014-Sep-24 22:34N 01°16' E 103°46'0 0.0
2014-Sep-24 21:33N 01°16' E 103°46'1 1.1
2014-Sep-24 20:33N 01°15' E 103°46'2 2.3
2014-Sep-24 19:34N 01°13' E 103°48'6 5.9
2014-Sep-24 18:31N 01°15' E 103°54'0 0.1
2014-Sep-24 17:31N 01°15' E 103°54'0 0.2
2014-Sep-24 16:31N 01°15' E 103°54'0 0.1
2014-Sep-24 15:31N 01°15' E 103°53'0 0.0
2014-Sep-24 14:31N 01°15' E 103°53'0 0.1
2014-Sep-24 13:31N 01°15' E 103°53'0 0.1
2014-Sep-24 12:31N 01°15' E 103°53'0 0.1
2014-Sep-24 11:31N 01°15' E 103°53'0 0.0
2014-Sep-24 10:31N 01°15' E 103°53'0 0.0
2014-Sep-24 09:19N 01°15' E 103°53'0 0.1
2014-Sep-24 08:31N 01°15' E 103°53'0 0.1
2014-Sep-24 07:31N 01°15' E 103°54'0 0.0
2014-Sep-24 06:31N 01°15' E 103°54'0 0.1
2014-Sep-24 05:28N 01°15' E 103°54'1 1.2
2014-Sep-24 04:33N 01°14' E 103°53'1 1.4
2014-Sep-24 03:31N 01°13' E 103°54'9 9.7
2014-Sep-24 02:33N 01°08' E 103°46'1010.3
2014-Sep-24 01:33N 01°05' E 103°36'1212.4
2014-Sep-24 00:33N 01°11' E 103°25'1312.1
2014-Sep-23 23:31N 01°19' E 103°15'  

Dump ship's entire track history